Time;durP1;ratioP1;P1;durP2;ratioP2;P2;SDS_P1;SDS_P2;PMS_P1;PMS_P2;Temp;Humidity;BMP_temperature;BMP_pressure;BME280_temperature;BME280_humidity;BME280_pressure;Samples;Min_cycle;Max_cycle;Signal;HPM_P1;HPM_P2
2021/04/01 00:01:10;;;;;;;71.33;52.47;;;12.70;74.50;;;;;;5025045;28;20055;-39
2021/04/01 00:03:45;;;;;;;74.20;53.97;;;12.70;74.40;;;;;;5000731;28;732927;-39
2021/04/01 00:06:14;;;;;;;62.63;49.08;;;12.80;74.50;;;;;;5022669;28;20044;-39
2021/04/01 00:08:41;;;;;;;66.18;48.17;;;12.70;74.70;;;;;;5025793;28;20122;-39
2021/04/01 00:11:09;;;;;;;63.60;49.75;;;12.70;75.10;;;;;;5026412;28;20050;-39
2021/04/01 00:13:40;;;;;;;60.78;46.50;;;12.60;74.70;;;;;;5026469;28;20206;-39
2021/04/01 00:16:06;;;;;;;62.05;46.70;;;12.60;75.10;;;;;;5023368;28;20172;-39
2021/04/01 00:18:35;;;;;;;59.67;46.22;;;12.50;75.90;;;;;;5026297;28;20394;-39
2021/04/01 00:21:04;;;;;;;61.67;48.13;;;12.30;76.30;;;;;;5026108;28;20049;-39
2021/04/01 00:23:30;;;;;;;66.55;50.25;;;12.30;77.60;;;;;;5033087;28;20055;-39
2021/04/01 00:25:58;;;;;;;65.82;52.17;;;12.20;77.60;;;;;;5026305;28;20037;-39
2021/04/01 00:28:26;;;;;;;70.05;51.80;;;12.20;77.20;;;;;;5026314;28;20049;-39
2021/04/01 00:31:04;;;;;;;64.90;48.85;;;12.20;77.00;;;;;;5026168;28;20084;-39
2021/04/01 00:33:33;;;;;;;63.40;49.45;;;12.20;76.60;;;;;;5008463;28;20049;-39
2021/04/01 00:35:59;;;;;;;62.28;47.13;;;12.20;77.30;;;;;;5025855;28;20045;-39
2021/04/01 00:38:28;;;;;;;64.85;48.17;;;12.10;77.60;;;;;;5026611;28;20056;-39
2021/04/01 00:40:59;;;;;;;61.17;48.30;;;12.10;78.00;;;;;;5025847;28;20060;-39
2021/04/01 00:43:30;;;;;;;68.65;51.85;;;12.00;77.50;;;;;;5025410;28;20049;-39
2021/04/01 00:45:56;;;;;;;71.37;53.93;;;12.10;78.40;;;;;;5025640;28;20049;-39
2021/04/01 00:48:26;;;;;;;72.32;54.95;;;12.10;77.80;;;;;;5025373;28;20176;-39
2021/04/01 00:50:55;;;;;;;74.28;54.13;;;12.20;77.20;;;;;;5026085;28;20095;-39
2021/04/01 00:53:28;;;;;;;85.88;59.90;;;12.30;76.90;;;;;;5025675;28;20516;-39
2021/04/01 00:55:54;;;;;;;86.80;61.15;;;12.40;76.60;;;;;;5025373;28;20060;-39
2021/04/01 00:58:21;;;;;;;82.60;60.15;;;12.50;76.00;;;;;;5025420;28;20593;-39
2021/04/01 01:03:49;;;;;;;88.32;63.45;;;12.50;75.50;;;;;;4984739;28;20050;-39
2021/04/01 01:06:15;;;;;;;84.07;58.30;;;12.60;75.40;;;;;;4981854;28;20046;-39
2021/04/01 01:08:43;;;;;;;81.18;58.00;;;12.60;75.20;;;;;;4983385;28;20112;-39
2021/04/01 01:11:12;;;;;;;86.93;61.60;;;12.60;75.40;;;;;;4985539;28;20058;-39
2021/04/01 01:13:38;;;;;;;79.97;59.05;;;12.60;75.50;;;;;;4983630;28;20054;-39
2021/04/01 01:16:05;;;;;;;84.63;61.22;;;12.60;75.50;;;;;;4982613;28;20213;-39
2021/04/01 01:18:31;;;;;;;94.88;64.78;;;12.60;75.70;;;;;;4980019;28;20058;-39
2021/04/01 01:21:11;;;;;;;80.35;57.75;;;12.60;75.60;;;;;;4982134;28;20157;-39
2021/04/01 01:23:40;;;;;;;79.82;57.30;;;12.60;75.10;;;;;;4982604;28;20172;-39
2021/04/01 01:26:07;;;;;;;78.78;60.75;;;12.50;75.40;;;;;;4980380;28;20446;-39
2021/04/01 01:28:36;;;;;;;81.38;58.67;;;12.50;76.50;;;;;;4982403;28;20046;-39
2021/04/01 01:31:05;;;;;;;79.82;59.05;;;12.40;77.00;;;;;;4982594;28;20049;-39
2021/04/01 01:33:41;;;;;;;89.65;61.05;;;12.40;77.00;;;;;;4982828;28;20053;-39
2021/04/01 01:36:12;;;;;;;91.50;65.45;;;12.40;77.20;;;;;;4982453;28;20802;-39
2021/04/01 01:38:48;;;;;;;82.63;58.50;;;12.30;76.70;;;;;;4982318;28;20058;-39
2021/04/01 01:41:14;;;;;;;84.30;59.78;;;12.40;76.40;;;;;;5022633;28;20132;-39
2021/04/01 01:43:42;;;;;;;84.70;59.85;;;12.40;76.80;;;;;;5024467;28;20132;-39
2021/04/01 01:46:11;;;;;;;93.10;65.05;;;12.40;76.70;;;;;;5024557;28;20072;-39
2021/04/01 01:48:37;;;;;;;88.95;61.28;;;12.40;75.70;;;;;;5024077;28;20064;-39
2021/04/01 01:51:08;;;;;;;89.38;63.67;;;12.50;75.00;;;;;;5024620;28;20588;-39
2021/04/01 01:53:38;;;;;;;93.63;63.63;;;12.50;74.60;;;;;;5025462;28;20053;-39
2021/04/01 01:56:07;;;;;;;88.45;61.55;;;12.60;74.00;;;;;;5024248;28;20052;-39
2021/04/01 01:58:36;;;;;;;85.75;59.13;;;12.60;73.90;;;;;;5022638;28;20045;-39
2021/04/01 02:01:03;;;;;;;89.00;61.42;;;12.50;74.20;;;;;;5024924;28;20049;-39
2021/04/01 02:03:31;;;;;;;89.63;60.15;;;12.50;74.10;;;;;;5024840;28;20521;-39
2021/04/01 02:05:59;;;;;;;90.60;62.60;;;12.50;73.70;;;;;;5024126;28;20058;-39
2021/04/01 02:08:27;;;;;;;87.35;59.05;;;12.50;73.60;;;;;;5024440;28;20505;-39
2021/04/01 02:10:53;;;;;;;88.47;60.33;;;12.50;73.20;;;;;;5025420;28;20050;-39
2021/04/01 02:13:21;;;;;;;94.32;62.40;;;12.60;72.80;;;;;;5025446;28;20080;-39
2021/04/01 02:15:51;;;;;;;86.45;58.40;;;12.60;72.50;;;;;;5024319;28;20053;-39
2021/04/01 02:18:24;;;;;;;92.25;61.72;;;12.70;72.10;;;;;;5024047;28;20095;-39
2021/04/01 02:20:51;;;;;;;88.45;61.67;;;12.70;71.90;;;;;;5024341;28;20045;-39
2021/04/01 02:23:28;;;;;;;95.05;63.90;;;12.70;71.80;;;;;;5025330;28;20052;-38
2021/04/01 02:25:56;;;;;;;94.32;60.47;;;12.70;71.60;;;;;;5024204;28;20053;-39
2021/04/01 02:28:29;;;;;;;94.60;63.60;;;12.70;71.60;;;;;;5011364;28;20057;-39
2021/04/01 02:30:57;;;;;;;92.10;59.85;;;12.70;71.70;;;;;;5028279;28;20147;-39
2021/04/01 02:33:30;;;;;;;92.90;60.83;;;12.60;71.60;;;;;;5029845;28;20038;-39
2021/04/01 02:36:00;;;;;;;94.63;62.20;;;12.70;71.60;;;;;;5033867;28;20050;-39
2021/04/01 02:38:28;;;;;;;86.25;60.08;;;12.70;71.20;;;;;;5028307;28;20041;-39
2021/04/01 02:40:55;;;;;;;88.82;60.58;;;12.70;71.90;;;;;;5028504;28;20057;-39
2021/04/01 02:45:50;;;;;;;93.78;64.32;;;12.70;71.60;;;;;;5028739;28;20050;-39
2021/04/01 02:48:16;;;;;;;97.40;65.43;;;12.60;71.50;;;;;;5027583;28;20065;-39
2021/04/01 02:50:42;;;;;;;94.35;63.75;;;12.60;71.90;;;;;;5033296;28;20049;-38
2021/04/01 02:53:14;;;;;;;95.30;63.47;;;12.50;73.00;;;;;;5027999;28;20046;-39
2021/04/01 02:55:41;;;;;;;94.90;64.22;;;12.50;72.90;;;;;;5027464;28;20061;-39
2021/04/01 02:58:10;;;;;;;99.15;66.38;;;12.40;73.30;;;;;;5028256;28;20038;-39
2021/04/01 03:00:37;;;;;;;99.93;68.45;;;12.40;73.40;;;;;;5028025;28;20064;-39
2021/04/01 03:05:33;;;;;;;100.28;68.05;;;12.30;73.00;;;;;;5028650;28;20057;-39
2021/04/01 03:07:58;;;;;;;101.15;67.47;;;12.30;73.00;;;;;;5027204;28;20045;-39
2021/04/01 03:10:29;;;;;;;102.63;67.97;;;12.30;73.00;;;;;;5027866;28;20049;-39
2021/04/01 03:12:57;;;;;;;102.80;67.43;;;12.30;73.50;;;;;;5027789;28;20098;-39
2021/04/01 03:15:26;;;;;;;102.22;68.32;;;12.30;73.00;;;;;;5027828;28;20046;-39
2021/04/01 03:17:54;;;;;;;107.22;70.70;;;12.30;73.40;;;;;;5029585;28;20096;-39
2021/04/01 03:20:23;;;;;;;110.30;72.20;;;12.30;73.10;;;;;;5026990;28;20489;-39
2021/04/01 03:22:52;;;;;;;109.72;71.60;;;12.30;73.30;;;;;;5026871;28;20084;-39
2021/04/01 03:25:22;;;;;;;107.60;72.07;;;12.30;73.90;;;;;;5027162;28;20049;-39
2021/04/01 03:27:52;;;;;;;106.80;70.10;;;12.30;73.20;;;;;;5030070;28;20075;-39
2021/04/01 03:30:20;;;;;;;106.22;72.53;;;12.20;73.90;;;;;;5017169;28;20033;-39
2021/04/01 03:32:49;;;;;;;105.63;69.72;;;12.20;74.30;;;;;;5027680;28;20136;-39
2021/04/01 03:35:23;;;;;;;101.68;67.25;;;12.10;74.40;;;;;;5026825;28;20053;-39
2021/04/01 03:37:57;;;;;;;112.93;73.15;;;12.10;74.60;;;;;;5025875;28;20162;-39
2021/04/01 03:40:26;;;;;;;111.80;73.13;;;12.10;74.20;;;;;;5027648;28;20096;-39
2021/04/01 03:42:54;;;;;;;103.53;69.15;;;12.10;74.00;;;;;;5027703;28;20083;-38
2021/04/01 03:45:23;;;;;;;108.15;73.82;;;12.10;73.80;;;;;;5028292;28;20561;-38
2021/04/01 03:47:51;;;;;;;113.72;76.60;;;12.00;73.90;;;;;;5028887;28;20136;-39
2021/04/01 03:50:21;;;;;;;114.72;75.00;;;11.90;74.30;;;;;;5027834;28;20620;-39
2021/04/01 03:52:50;;;;;;;112.53;74.97;;;11.90;74.60;;;;;;5028106;28;20072;-38
2021/04/01 03:57:46;;;;;;;126.50;78.45;;;11.70;75.00;;;;;;5028495;28;20041;-39
2021/04/01 04:00:36;;;;;;;117.63;77.38;;;11.70;74.80;;;;;;5029159;28;20046;-39
2021/04/01 04:06:04;;;;;;;123.22;80.28;;;11.50;75.50;;;;;;5028024;28;20054;-38
2021/04/01 04:14:09;;;;;;;124.75;81.68;;;11.30;76.00;;;;;;5024713;28;20053;-38
2021/04/01 04:16:38;;;;;;;126.80;84.05;;;11.20;76.40;;;;;;5026798;28;20050;-39
2021/04/01 04:19:07;;;;;;;131.40;85.00;;;11.10;76.70;;;;;;5026454;28;20045;-39
2021/04/01 04:21:39;;;;;;;128.57;83.95;;;11.10;77.50;;;;;;5026599;28;20053;-38
2021/04/01 04:24:11;;;;;;;;;;;11.00;77.80;;;;;;5026203;28;20144;-39
2021/04/01 04:26:40;;;;;;;135.82;89.30;;;10.90;79.20;;;;;;5024427;28;19932;-38
2021/04/01 04:29:08;;;;;;;135.50;86.37;;;10.90;78.90;;;;;;5024827;28;20610;-38
2021/04/01 04:31:37;;;;;;;144.15;89.68;;;10.80;78.30;;;;;;5025164;28;20304;-38
2021/04/01 04:34:03;;;;;;;146.32;90.55;;;10.80;78.20;;;;;;5026410;28;20567;-39
2021/04/01 04:36:31;;;;;;;137.45;91.05;;;10.80;79.30;;;;;;5026046;28;20053;-38
2021/04/01 04:38:57;;;;;;;143.98;92.30;;;10.70;78.80;;;;;;5025324;28;20041;-38
2021/04/01 04:41:28;;;;;;;145.23;91.40;;;10.60;79.50;;;;;;5025729;28;20505;-39
2021/04/01 04:43:56;;;;;;;146.40;92.90;;;10.60;79.20;;;;;;5026097;28;20061;-39
2021/04/01 04:46:25;;;;;;;133.10;85.40;;;10.50;79.00;;;;;;5026071;28;20147;-38
2021/04/01 04:48:51;;;;;;;131.23;83.90;;;10.50;78.90;;;;;;5024610;28;20087;-38
2021/04/01 04:51:17;;;;;;;142.05;90.03;;;10.40;78.60;;;;;;5025471;28;20099;-38
2021/04/01 04:53:50;;;;;;;138.93;88.57;;;10.40;78.90;;;;;;5025305;28;20463;-45
2021/04/01 04:56:18;;;;;;;146.13;91.57;;;10.30;79.80;;;;;;5026719;28;20128;-47
2021/04/01 04:58:55;;;;;;;142.23;91.53;;;10.30;79.80;;;;;;5025258;28;20060;-45
2021/04/01 05:06:54;;;;;;;136.68;89.30;;;10.30;80.60;;;;;;5026347;28;20073;-46
2021/04/01 05:09:25;;;;;;;140.32;91.25;;;10.30;80.00;;;;;;5026242;28;20061;-49
2021/04/01 05:11:53;;;;;;;138.35;90.50;;;10.40;80.10;;;;;;5026811;28;20127;-47
2021/04/01 05:14:22;;;;;;;141.15;87.45;;;10.40;79.80;;;;;;5026955;28;20132;-47
2021/04/01 05:16:48;;;;;;;130.25;86.25;;;10.40;79.30;;;;;;5026026;28;20056;-44
2021/04/01 05:19:17;;;;;;;135.20;87.32;;;10.30;79.30;;;;;;5025585;28;20493;-47
2021/04/01 05:22:07;;;;;;;131.38;86.57;;;10.30;79.40;;;;;;5030161;28;20053;-45
2021/04/01 05:24:36;;;;;;;130.75;88.22;;;10.30;79.60;;;;;;5025872;28;20048;-45
2021/04/01 05:27:10;;;;;;;131.60;85.70;;;10.10;79.60;;;;;;5025926;28;20053;-44
2021/04/01 05:29:40;;;;;;;129.68;85.90;;;10.10;80.10;;;;;;5029655;28;20494;-45
2021/04/01 05:32:07;;;;;;;127.82;86.68;;;10.00;80.20;;;;;;5024010;28;20049;-45
2021/04/01 05:34:35;;;;;;;408.90;284.70;;;10.10;80.00;;;;;;5023097;28;20045;-43
2021/04/01 05:37:02;;;;;;;139.50;96.22;;;10.10;80.00;;;;;;5022687;28;20052;-44
2021/04/01 05:39:37;;;;;;;132.90;93.50;;;10.10;79.70;;;;;;5030757;28;20044;-44
2021/04/01 05:42:07;;;;;;;126.32;86.35;;;10.10;80.40;;;;;;5027837;28;20052;-44
2021/04/01 05:44:42;;;;;;;131.75;90.68;;;10.10;79.70;;;;;;5026120;28;20058;-47
2021/04/01 05:50:00;;;;;;;124.47;84.03;;;10.10;79.50;;;;;;5006024;28;20825;-50
2021/04/01 06:01:09;;;;;;;120.32;84.10;;;10.20;79.30;;;;;;5028409;28;20688;-47
2021/04/01 06:03:54;;;;;;;117.90;82.00;;;10.20;79.20;;;;;;5030048;28;20426;-47
2021/04/01 06:06:39;;;;;;;116.00;81.53;;;10.10;79.80;;;;;;5012659;28;20072;-45
2021/04/01 06:09:11;;;;;;;110.30;80.75;;;10.10;80.00;;;;;;5011367;28;20549;-43
2021/04/01 06:11:43;;;;;;;110.40;79.30;;;9.80;80.20;;;;;;5031175;28;20046;-44
2021/04/01 06:14:18;;;;;;;111.32;78.57;;;9.60;81.60;;;;;;5010811;28;20061;-42
2021/04/01 06:16:45;;;;;;;99.80;69.63;;;9.50;82.30;;;;;;5024119;28;20053;-43
2021/04/01 06:19:23;;;;;;;86.60;61.08;;;9.40;82.90;;;;;;5036369;28;20046;-43
2021/04/01 06:21:56;;;;;;;93.28;58.63;;;9.20;83.60;;;;;;5037084;28;20054;-43
2021/04/01 06:24:29;;;;;;;59.03;40.70;;;9.30;83.80;;;;;;5029753;28;20561;-44
2021/04/01 06:32:40;;;;;;;44.50;24.73;;;9.20;83.30;;;;;;5029836;28;20075;-44
2021/04/01 06:35:24;;;;;;;129.77;98.32;;;9.20;82.70;;;;;;5027627;28;20057;-43
2021/04/01 06:40:36;;;;;;;60.45;36.53;;;9.80;81.10;;;;;;5028804;28;20726;-46
2021/04/01 06:43:18;;;;;;;30.30;16.35;;;10.10;80.20;;;;;;5034361;28;20041;-47
2021/04/01 06:45:53;;;;;;;36.37;16.70;;;10.50;78.20;;;;;;5022016;28;20067;-43
2021/04/01 06:48:21;;;;;;;27.15;12.52;;;10.60;77.20;;;;;;5028400;28;20049;-44
2021/04/01 06:50:51;;;;;;;32.83;13.23;;;10.70;77.00;;;;;;5021310;28;20073;-45
2021/04/01 06:56:22;;;;;;;21.98;10.65;;;10.90;75.50;;;;;;5026102;28;20044;-45
2021/04/01 06:59:36;;;;;;;30.13;16.45;;;11.00;75.60;;;;;;5012884;28;20046;-52
2021/04/01 07:04:54;;;;;;;22.05;8.88;;;11.60;72.90;;;;;;5029116;28;20057;-49
2021/04/01 07:07:22;;;;;;;30.98;15.90;;;11.90;72.90;;;;;;5027527;28;20056;-47
2021/04/01 07:12:31;;;;;;;18.27;7.65;;;12.20;69.50;;;;;;5022960;28;20053;-47
2021/04/01 07:15:05;;;;;;;19.00;6.75;;;12.50;69.60;;;;;;5021190;28;20054;-47
2021/04/01 07:17:50;;;;;;;17.40;5.95;;;12.70;68.80;;;;;;5030599;28;20050;-45
2021/04/01 07:48:55;;;;;;;17.00;5.35;;;13.20;60.70;;;;;;4945588;28;20146;-43
2021/04/01 07:54:15;;;;;;;20.10;9.48;;;13.40;62.10;;;;;;4929656;29;20090;-47
2021/04/01 07:56:52;;;;;;;16.75;4.13;;;13.70;62.10;;;;;;4932388;29;20106;-45
2021/04/01 08:02:20;;;;;;;20.73;8.35;;;13.80;61.40;;;;;;4947017;28;20059;-44
2021/04/01 08:04:57;;;;;;;14.07;4.32;;;14.10;61.10;;;;;;4945120;29;20094;-45
2021/04/01 08:07:30;;;;;;;20.23;7.65;;;14.50;59.10;;;;;;4949615;28;20061;-45
2021/04/01 08:10:06;;;;;;;16.90;7.15;;;14.40;60.20;;;;;;5007301;28;20057;-50
2021/04/01 08:12:46;;;;;;;19.77;7.38;;;14.40;59.80;;;;;;5000983;28;20038;-48
2021/04/01 08:15:22;;;;;;;20.88;9.45;;;14.70;59.20;;;;;;4994847;28;20089;-46
2021/04/01 08:18:17;;;;;;;14.18;4.68;;;14.90;59.80;;;;;;4987494;28;20811;-46
2021/04/01 08:20:48;;;;;;;21.42;6.35;;;14.60;59.30;;;;;;5005984;28;20081;-46
2021/04/01 08:23:21;;;;;;;14.57;5.22;;;14.60;59.10;;;;;;5005968;28;20049;-45
2021/04/01 08:29:46;;;;;;;14.95;3.40;;;14.60;58.80;;;;;;4986726;28;20054;-43
2021/04/01 08:36:59;;;;;;;17.52;4.47;;;15.30;58.60;;;;;;5006755;28;20057;-44
2021/04/01 08:39:35;;;;;;;20.17;5.30;;;15.10;58.40;;;;;;5006968;28;20056;-45
2021/04/01 08:42:33;;;;;;;18.17;5.50;;;15.40;57.10;;;;;;5005720;28;20130;-43
2021/04/01 08:45:33;;;;;;;22.08;6.25;;;15.40;57.40;;;;;;5005116;28;20054;-45
2021/04/01 08:48:38;;;;;;;15.98;4.55;;;15.40;58.00;;;;;;5006160;28;20451;-45
2021/04/01 08:51:27;;;;;;;16.48;3.90;;;15.80;57.40;;;;;;4986722;28;20475;-46
2021/04/01 08:54:12;;;;;;;22.80;9.70;;;15.30;57.00;;;;;;4989754;28;20901;-44
2021/04/01 08:57:04;;;;;;;15.82;5.38;;;14.70;58.80;;;;;;5005908;28;20054;-47
2021/04/01 08:59:47;;;;;;;15.88;4.05;;;14.50;59.80;;;;;;5006427;28;20104;-43
2021/04/01 09:02:29;;;;;;;17.67;8.60;;;14.30;60.40;;;;;;5005598;28;20048;-47
2021/04/01 09:05:05;;;;;;;17.20;9.65;;;13.90;62.10;;;;;;5023367;28;20136;-45
2021/04/01 09:07:43;;;;;;;25.88;12.13;;;13.90;62.30;;;;;;5032982;28;20477;-45
2021/04/01 09:10:17;;;;;;;17.80;8.48;;;13.60;63.10;;;;;;5026858;28;20050;-44
2021/04/01 09:15:49;;;;;;;16.83;5.88;;;13.90;64.70;;;;;;5026110;28;20149;-45
2021/04/01 09:18:26;;;;;;;17.08;8.35;;;13.80;63.80;;;;;;5010183;28;20064;-46
2021/04/01 09:21:02;;;;;;;15.98;7.90;;;13.40;64.00;;;;;;5026199;28;20057;-48
2021/04/01 09:23:58;;;;;;;19.92;10.07;;;13.10;64.40;;;;;;5026374;28;20045;-45
2021/04/01 09:26:25;;;;;;;11.23;4.82;;;13.50;64.80;;;;;;5026233;28;20092;-46
2021/04/01 09:29:05;;;;;;;15.10;4.82;;;13.80;64.00;;;;;;5032836;28;20053;-44
2021/04/01 09:31:52;;;;;;;15.80;4.50;;;14.40;62.80;;;;;;5031042;28;20049;-46
2021/04/01 09:34:18;;;;;;;12.32;3.38;;;14.30;62.40;;;;;;5035047;28;20041;-44
2021/04/01 09:36:48;;;;;;;14.73;3.33;;;14.40;62.40;;;;;;5031725;28;20061;-44
2021/04/01 09:39:28;;;;;;;15.15;3.80;;;14.20;61.80;;;;;;5033230;28;20041;-44
2021/04/01 09:42:07;;;;;;;13.50;3.58;;;14.00;61.80;;;;;;5029636;28;20053;-45
2021/04/01 09:44:36;;;;;;;9.98;2.88;;;14.60;60.70;;;;;;5029530;28;20081;-44
2021/04/01 09:47:29;;;;;;;12.88;2.97;;;15.10;58.60;;;;;;5029990;28;20513;-43
2021/04/01 09:50:10;;;;;;;9.20;2.88;;;15.30;57.50;;;;;;5030016;28;20160;-49
2021/04/01 09:52:54;;;;;;;8.23;2.33;;;16.00;56.40;;;;;;5030044;28;20057;-47
2021/04/01 09:55:28;;;;;;;11.85;2.40;;;16.50;56.40;;;;;;5029807;28;20080;-46
2021/04/01 09:57:58;;;;;;;8.10;2.17;;;16.50;54.70;;;;;;5029227;28;20057;-46
2021/04/01 10:03:14;;;;;;;9.90;2.60;;;16.70;52.80;;;;;;5020978;28;20509;-45
2021/04/01 10:05:47;;;;;;;11.00;3.13;;;17.00;52.10;;;;;;5029449;28;20524;-48
2021/04/01 10:08:31;;;;;;;11.73;2.70;;;17.30;52.40;;;;;;5011956;28;20136;-45
2021/04/01 10:11:28;;;;;;;8.55;2.85;;;17.50;52.00;;;;;;5029687;28;20053;-47
2021/04/01 10:14:06;;;;;;;14.75;3.00;;;17.70;49.20;;;;;;5005707;28;20580;-48
2021/04/01 10:16:32;;;;;;;10.98;2.35;;;18.10;49.60;;;;;;4987328;28;20434;-45
2021/04/01 10:19:03;;;;;;;10.82;2.40;;;17.60;49.60;;;;;;4991929;28;20053;-45
2021/04/01 10:21:44;;;;;;;75.28;68.10;;;17.80;49.60;;;;;;5009402;28;20481;-38
2021/04/01 10:24:26;;;;;;;57.75;38.80;;;18.10;48.80;;;;;;5004095;28;20049;-39
2021/04/01 10:27:24;;;;;;;22.15;13.35;;;19.20;47.30;;;;;;5005103;28;20598;-40
2021/04/01 10:32:17;;;;;;;21.58;14.30;;;19.70;45.70;;;;;;5005227;28;20566;-43
2021/04/01 10:34:56;;;;;;;20.83;9.48;;;19.60;44.00;;;;;;5005342;28;20057;-45
2021/04/01 10:37:25;;;;;;;14.00;2.95;;;19.80;44.30;;;;;;5009207;28;20152;-40
2021/04/01 10:40:13;;;;;;;12.90;4.40;;;19.90;42.80;;;;;;5006433;28;20581;-45
2021/04/01 10:42:48;;;;;;;14.57;4.75;;;19.30;45.00;;;;;;4992509;28;20492;-48
2021/04/01 10:45:18;;;;;;;14.48;3.40;;;20.00;44.10;;;;;;4986505;28;20137;-51
2021/04/01 10:48:09;;;;;;;13.15;2.75;;;20.10;44.00;;;;;;4991572;28;20050;-48
2021/04/01 10:50:38;;;;;;;9.15;2.75;;;20.30;41.90;;;;;;5014511;28;20124;-51
2021/04/01 10:53:20;;;;;;;13.00;4.70;;;20.20;42.90;;;;;;5039423;28;20103;-47
2021/04/01 10:55:47;;;;;;;10.82;4.25;;;20.70;40.20;;;;;;5020663;28;20061;-45
2021/04/01 10:58:21;;;;;;;10.30;4.50;;;20.00;41.50;;;;;;5026200;28;20048;-44
2021/04/01 11:00:55;;;;;;;13.15;6.40;;;19.30;42.20;;;;;;5027317;28;20049;-46
2021/04/01 11:03:33;;;;;;;11.43;5.78;;;18.90;42.00;;;;;;5032314;28;20057;-47
2021/04/01 11:06:04;;;;;;;14.95;4.35;;;18.70;42.30;;;;;;5026692;28;20045;-45
2021/04/01 11:08:44;;;;;;;16.13;7.70;;;18.70;43.40;;;;;;5027438;28;20091;-45
2021/04/01 11:11:23;;;;;;;12.23;3.92;;;18.60;43.70;;;;;;5026893;28;20053;-45
2021/04/01 11:13:53;;;;;;;12.68;4.75;;;18.90;43.60;;;;;;5026027;28;20136;-48
2021/04/01 11:16:30;;;;;;;8.65;4.15;;;19.00;43.50;;;;;;5026163;28;20049;-45
2021/04/01 11:19:05;;;;;;;11.15;3.38;;;19.30;43.50;;;;;;5026521;28;20049;-46
2021/04/01 11:21:43;;;;;;;12.20;5.43;;;19.00;41.80;;;;;;5027509;28;20111;-41
2021/04/01 11:24:26;;;;;;;11.10;3.58;;;19.50;40.10;;;;;;5027201;28;20045;-44
2021/04/01 11:27:25;;;;;;;11.27;3.58;;;19.30;41.80;;;;;;5026609;28;20057;-44
2021/04/01 11:29:59;;;;;;;10.25;2.90;;;19.60;40.60;;;;;;5026373;28;20056;-47
2021/04/01 11:32:34;;;;;;;8.10;3.60;;;18.90;39.80;;;;;;5026738;28;20053;-46
2021/04/01 11:35:07;;;;;;;12.95;3.70;;;19.00;40.90;;;;;;5026033;28;20077;-44
2021/04/01 11:37:46;;;;;;;9.00;3.05;;;19.20;41.30;;;;;;5026594;28;20045;-44
2021/04/01 11:40:18;;;;;;;9.23;2.40;;;19.50;40.60;;;;;;5027600;28;20049;-46
2021/04/01 11:43:03;;;;;;;11.60;3.13;;;19.10;39.90;;;;;;5026759;28;20133;-44
2021/04/01 11:45:40;;;;;;;10.32;2.72;;;19.00;40.00;;;;;;5025931;28;20045;-44
2021/04/01 11:48:15;;;;;;;9.32;2.88;;;19.30;40.50;;;;;;5025863;28;20053;-44
2021/04/01 11:50:50;;;;;;;11.00;3.45;;;20.00;40.10;;;;;;5019287;28;20772;-44
2021/04/01 11:53:29;;;;;;;12.88;3.22;;;19.20;40.70;;;;;;5026875;28;20058;-44
2021/04/01 11:56:00;;;;;;;11.65;2.92;;;19.60;40.20;;;;;;5026198;28;20080;-46
2021/04/01 11:58:35;;;;;;;10.98;3.17;;;19.30;39.60;;;;;;5025941;28;20049;-47
2021/04/01 12:01:33;;;;;;;11.48;3.17;;;18.90;41.00;;;;;;5026878;28;20058;-43
2021/04/01 12:04:12;;;;;;;8.93;2.67;;;19.00;41.60;;;;;;5027512;28;20160;-45
2021/04/01 12:06:45;;;;;;;8.63;2.80;;;19.20;40.40;;;;;;5027075;28;20046;-44
2021/04/01 12:09:20;;;;;;;11.80;2.88;;;19.20;39.10;;;;;;5026165;28;20052;-46
2021/04/01 12:11:57;;;;;;;12.13;3.13;;;19.50;39.40;;;;;;5007325;28;20399;-49
2021/04/01 12:14:55;;;;;;;11.90;3.58;;;19.30;40.20;;;;;;5023468;28;20049;-46
2021/04/01 12:17:33;;;;;;;35.00;28.65;;;19.90;40.00;;;;;;5024544;28;20074;-48
2021/04/01 12:20:08;;;;;;;22.77;14.43;;;20.30;39.10;;;;;;5027702;28;20409;-45
2021/04/01 12:22:39;;;;;;;25.33;17.73;;;21.00;38.10;;;;;;5026346;28;20056;-45
2021/04/01 12:25:09;;;;;;;14.00;5.47;;;21.20;37.60;;;;;;5021747;28;20157;-41
2021/04/01 12:27:47;;;;;;;15.63;6.60;;;21.20;37.40;;;;;;5025917;28;20053;-43
2021/04/01 12:30:29;;;;;;;16.02;5.50;;;21.50;36.30;;;;;;5028995;28;20057;-45
2021/04/01 12:33:07;;;;;;;;;;;21.30;36.70;;;;;;5008272;28;20128;-39
2021/04/01 12:35:39;;;;;;;41.80;33.10;;;21.00;34.90;;;;;;5007773;28;19975;-43
2021/04/01 12:38:08;;;;;;;19.75;11.20;;;21.30;36.00;;;;;;5027032;28;20132;-42
2021/04/01 12:40:44;;;;;;;12.77;4.50;;;21.60;35.00;;;;;;5010823;28;20061;-49
2021/04/01 12:43:13;;;;;;;15.70;8.02;;;21.50;34.80;;;;;;5009540;28;20053;-45
2021/04/01 12:45:44;;;;;;;13.80;4.78;;;21.40;35.70;;;;;;5026796;28;20053;-55
2021/04/01 12:48:17;;;;;;;;;;;21.40;33.90;;;;;;5027256;28;20053;-46
2021/04/01 12:50:46;;;;;;;12.82;3.63;;;21.00;33.30;;;;;;5014639;28;19929;-47
2021/04/01 12:53:23;;;;;;;31.20;20.95;;;21.30;35.50;;;;;;5032273;28;20046;-47
2021/04/01 12:55:56;;;;;;;35.17;27.52;;;21.40;34.60;;;;;;5025187;28;20061;-46
2021/04/01 12:58:35;;;;;;;21.67;14.40;;;21.50;35.60;;;;;;5026068;28;20140;-46
2021/04/01 13:01:39;;;;;;;11.82;5.13;;;21.30;33.90;;;;;;5025986;28;20445;-47
2021/04/01 13:04:10;;;;;;;11.88;3.65;;;21.00;33.80;;;;;;4946009;28;20090;-48
2021/04/01 13:11:52;;;;;;;15.00;3.90;;;21.40;33.40;;;;;;4946342;29;20133;-48
2021/04/01 13:14:22;;;;;;;11.98;4.13;;;21.00;33.50;;;;;;4945687;29;20153;-42
2021/04/01 13:16:57;;;;;;;10.18;3.15;;;21.10;33.20;;;;;;4944524;29;20043;-47
2021/04/01 13:19:23;;;;;;;11.25;3.75;;;20.80;32.50;;;;;;4943227;29;20158;-48
2021/04/01 13:22:23;;;;;;;173.50;153.07;;;20.80;33.70;;;;;;4944701;29;20070;-46
2021/04/01 13:25:06;;;;;;;34.78;25.23;;;20.80;34.80;;;;;;4944321;29;20051;-47
2021/04/01 13:27:42;;;;;;;12.60;3.88;;;20.90;35.70;;;;;;4945620;29;20055;-49
2021/04/01 13:30:12;;;;;;;33.08;24.60;;;21.30;35.50;;;;;;4945449;29;20852;-48
2021/04/01 13:40:21;;;;;;;12.05;3.20;;;21.20;33.60;;;;;;4971668;28;20670;-45
2021/04/01 13:43:00;;;;;;;14.13;5.57;;;20.80;32.90;;;;;;5005128;28;20057;-50
2021/04/01 13:45:32;;;;;;;12.00;3.63;;;21.00;34.00;;;;;;5002927;28;20107;-45
2021/04/01 13:48:06;;;;;;;10.02;2.80;;;21.00;34.10;;;;;;5006032;28;20065;-49
2021/04/01 13:50:41;;;;;;;8.82;3.55;;;20.70;35.30;;;;;;5003499;28;20096;-46
2021/04/01 13:56:02;;;;;;;7.57;2.55;;;20.30;36.70;;;;;;5006525;28;20057;-39
2021/04/01 14:09:38;;;;;;;14.15;2.20;;;20.40;37.30;;;;;;5018600;28;20729;-43
2021/04/01 14:12:10;;;;;;;11.15;2.25;;;18.90;38.60;;;;;;5024966;28;20579;-40
2021/04/01 14:14:44;;;;;;;6.25;1.73;;;18.90;41.00;;;;;;5024497;28;20219;-40
2021/04/01 14:17:13;;;;;;;54.05;46.08;;;19.10;40.90;;;;;;5009443;28;20042;-40
2021/04/01 14:19:47;;;;;;;7.72;3.10;;;19.00;40.80;;;;;;5023795;28;20053;-43
2021/04/01 14:22:19;;;;;;;7.10;2.33;;;18.50;41.20;;;;;;5028506;28;20072;-43
2021/04/01 14:24:58;;;;;;;7.88;5.13;;;19.00;40.40;;;;;;5036041;28;20660;-44
2021/04/01 14:30:02;;;;;;;9.95;4.00;;;16.90;44.20;;;;;;5027773;28;20509;-41
2021/04/01 14:32:36;;;;;;;10.15;2.63;;;15.90;47.80;;;;;;5029469;28;20054;-43
2021/04/01 14:35:06;;;;;;;6.63;2.38;;;15.20;50.10;;;;;;5027944;28;20049;-42
2021/04/01 14:37:40;;;;;;;96.78;78.20;;;14.60;51.60;;;;;;5027627;28;20069;-42
2021/04/01 14:40:10;;;;;;;24.60;17.42;;;14.50;53.50;;;;;;5029324;28;20053;-44
2021/04/01 14:42:43;;;;;;;12.38;6.97;;;14.30;53.40;;;;;;5027779;28;20055;-45
2021/04/01 14:45:18;;;;;;;12.55;7.32;;;14.20;53.40;;;;;;5020478;28;20950;-42
2021/04/01 14:47:54;;;;;;;13.60;5.97;;;14.20;54.20;;;;;;5023254;28;20060;-44
2021/04/01 14:50:32;;;;;;;7.78;2.67;;;14.60;53.60;;;;;;5026195;28;20493;-42
2021/04/01 14:53:08;;;;;;;9.23;4.10;;;14.70;52.80;;;;;;5028381;28;20045;-44
2021/04/01 14:55:44;;;;;;;13.43;4.00;;;14.70;52.10;;;;;;5024463;28;20418;-43
2021/04/01 14:58:22;;;;;;;8.70;3.10;;;14.60;52.60;;;;;;5028841;28;20046;-42
2021/04/01 15:00:56;;;;;;;7.28;2.67;;;14.50;53.00;;;;;;5020505;28;20307;-45
2021/04/01 15:03:25;;;;;;;51.08;40.47;;;14.90;52.70;;;;;;5021933;28;20045;-42
2021/04/01 15:06:22;;;;;;;;;;;;;;;;;;;;;
2021/04/01 15:09:14;;;;;;;10.82;4.57;;;15.50;49.30;;;;;;5017361;28;20077;-44
2021/04/01 15:11:52;;;;;;;10.27;6.15;;;14.90;51.10;;;;;;5029597;28;20099;-43
2021/04/01 15:14:18;;;;;;;11.45;5.10;;;14.70;52.10;;;;;;5005837;28;20165;-42
2021/04/01 15:16:57;;;;;;;12.68;5.15;;;14.50;53.00;;;;;;5025964;28;20050;-43
2021/04/01 15:19:28;;;;;;;10.10;3.55;;;14.40;54.10;;;;;;5026774;28;20483;-45